Time;durP1;ratioP1;P1;durP2;ratioP2;P2;SDS_P1;SDS_P2;PMS_P1;PMS_P2;Temp;Humidity;BMP_temperature;BMP_pressure;BME280_temperature;BME280_humidity;BME280_pressure;Samples;Min_cycle;Max_cycle;Signal;HPM_P1;HPM_P2
2022/05/19 00:01:22;;;;;;;5.13;0.90;;;21.70;58.10;;;;;;4975172;28;20058;-70
2022/05/19 00:03:29;;;;;;;3.10;0.90;;;21.70;58.20;;;;;;4974577;28;20105;-70
2022/05/19 00:05:55;;;;;;;5.85;1.00;;;21.70;58.30;;;;;;4974745;28;20022;-69
2022/05/19 00:08:20;;;;;;;5.45;1.00;;;21.70;58.30;;;;;;4958544;28;20034;-70
2022/05/19 00:10:46;;;;;;;2.63;0.70;;;21.70;58.40;;;;;;4975864;28;20158;-70
2022/05/19 00:13:12;;;;;;;3.92;0.95;;;21.70;58.40;;;;;;4974666;28;20031;-70
2022/05/19 00:15:37;;;;;;;4.55;1.02;;;21.80;58.50;;;;;;4975527;28;20555;-70
2022/05/19 00:18:03;;;;;;;1.05;0.52;;;21.80;58.50;;;;;;4974401;28;20583;-70
2022/05/19 00:20:29;;;;;;;3.40;0.80;;;21.80;58.50;;;;;;4975747;28;20026;-70
2022/05/19 00:22:55;;;;;;;3.17;1.30;;;21.80;58.60;;;;;;4956337;28;20027;-70
2022/05/19 00:25:20;;;;;;;1.10;0.80;;;21.70;58.60;;;;;;4938975;29;20024;-70
2022/05/19 00:27:46;;;;;;;6.47;1.40;;;21.80;58.60;;;;;;4955111;29;20027;-70
2022/05/19 00:30:12;;;;;;;2.90;0.90;;;21.70;58.60;;;;;;4954971;29;20027;-70
2022/05/19 00:32:38;;;;;;;2.05;0.75;;;21.80;58.70;;;;;;4955088;29;20023;-70
2022/05/19 00:35:04;;;;;;;2.38;0.77;;;21.70;58.70;;;;;;4954556;28;20501;-70
2022/05/19 00:37:29;;;;;;;1.85;0.90;;;21.80;58.80;;;;;;4955138;29;20023;-70
2022/05/19 00:39:55;;;;;;;4.22;0.88;;;21.80;58.80;;;;;;4956177;29;20130;-70
2022/05/19 00:45:06;;;;;;;1.65;0.90;;;21.70;58.80;;;;;;4955589;29;20055;-70
2022/05/19 00:48:21;;;;;;;2.50;0.95;;;21.70;58.80;;;;;;4956186;28;20426;-70
2022/05/19 00:50:47;;;;;;;3.92;0.77;;;21.80;58.90;;;;;;4973097;28;20066;-70
2022/05/19 00:53:19;;;;;;;2.00;0.80;;;21.70;59.00;;;;;;4974851;28;20450;-70
2022/05/19 00:55:45;;;;;;;1.88;0.65;;;21.80;59.00;;;;;;4975169;28;20023;-70
2022/05/19 00:58:39;;;;;;;3.33;0.80;;;21.70;59.00;;;;;;4973799;28;20110;-69
2022/05/19 01:01:05;;;;;;;7.15;1.15;;;21.80;59.10;;;;;;4973315;28;20026;-70
2022/05/19 01:03:35;;;;;;;2.95;0.80;;;21.70;59.10;;;;;;4973647;28;20026;-70
2022/05/19 01:06:05;;;;;;;1.20;0.75;;;21.70;59.10;;;;;;4973901;28;20066;-70
2022/05/19 01:08:56;;;;;;;1.90;0.70;;;21.70;59.10;;;;;;4973658;28;20027;-70
2022/05/19 01:11:21;;;;;;;5.25;0.90;;;21.80;59.20;;;;;;4973729;28;20477;-69
2022/05/19 01:13:47;;;;;;;4.55;0.98;;;21.70;59.20;;;;;;4973544;28;20029;-70
2022/05/19 01:16:13;;;;;;;1.60;0.90;;;21.70;59.20;;;;;;4973040;28;20027;-70
2022/05/19 01:18:39;;;;;;;2.55;1.00;;;21.70;59.20;;;;;;4973503;28;20027;-70
2022/05/19 01:21:07;;;;;;;5.53;1.02;;;21.70;59.20;;;;;;4970021;28;20030;-70
2022/05/19 01:23:47;;;;;;;0.77;0.60;;;21.70;59.20;;;;;;4954021;29;20031;-70
2022/05/19 01:26:44;;;;;;;2.28;0.90;;;21.80;59.30;;;;;;4953845;29;20031;-70
2022/05/19 01:29:11;;;;;;;1.80;0.80;;;21.70;59.30;;;;;;4953874;29;20031;-70
2022/05/19 01:31:53;;;;;;;3.85;0.70;;;21.70;59.40;;;;;;4953702;29;20092;-70
2022/05/19 01:34:22;;;;;;;1.67;0.70;;;21.80;59.40;;;;;;4953621;29;20023;-70
2022/05/19 01:36:48;;;;;;;1.83;0.90;;;21.70;59.40;;;;;;4953951;29;20030;-70
2022/05/19 01:39:20;;;;;;;2.65;0.93;;;21.70;59.40;;;;;;4965487;28;20023;-70
2022/05/19 01:42:23;;;;;;;4.85;0.85;;;21.70;59.40;;;;;;4973026;28;20123;-70
2022/05/19 01:45:10;;;;;;;1.42;0.70;;;21.70;59.60;;;;;;4973696;28;20054;-70
2022/05/19 01:48:09;;;;;;;3.65;0.80;;;21.70;59.60;;;;;;4973899;28;20030;-70
2022/05/19 01:50:36;;;;;;;3.90;1.08;;;21.70;59.70;;;;;;4973295;28;20102;-70
2022/05/19 01:53:05;;;;;;;2.35;0.90;;;21.60;59.60;;;;;;4972803;28;20118;-70
2022/05/19 01:55:46;;;;;;;3.45;0.90;;;21.60;59.60;;;;;;4972737;28;20023;-70
2022/05/19 01:58:30;;;;;;;2.38;1.00;;;21.70;59.70;;;;;;4973858;28;20106;-70
2022/05/19 02:00:57;;;;;;;2.65;0.73;;;21.70;59.70;;;;;;4972650;28;20031;-70
2022/05/19 02:03:35;;;;;;;2.60;0.85;;;21.60;59.70;;;;;;4972560;28;20023;-70
2022/05/19 02:06:11;;;;;;;4.57;1.23;;;21.70;59.80;;;;;;4972672;28;20031;-69
2022/05/19 02:08:46;;;;;;;1.77;0.73;;;21.70;59.80;;;;;;4972899;28;20023;-70
2022/05/19 02:11:15;;;;;;;1.67;0.77;;;21.70;59.80;;;;;;4972657;28;20023;-69
2022/05/19 02:13:40;;;;;;;2.72;1.13;;;21.70;59.80;;;;;;4972538;28;20082;-70
2022/05/19 02:16:07;;;;;;;5.28;0.80;;;21.70;59.80;;;;;;4972489;28;20030;-70
2022/05/19 02:18:33;;;;;;;2.60;0.82;;;21.70;59.80;;;;;;4972401;28;20106;-69
2022/05/19 02:20:59;;;;;;;1.63;0.95;;;21.70;59.80;;;;;;4972429;28;20111;-69
2022/05/19 02:23:25;;;;;;;2.70;0.90;;;21.70;60.90;;;;;;4956450;28;20033;-69
2022/05/19 02:25:52;;;;;;;4.75;1.00;;;21.70;60.00;;;;;;4972480;28;20700;-69
2022/05/19 02:28:26;;;;;;;2.33;1.00;;;21.70;59.90;;;;;;4956061;28;20018;-69
2022/05/19 02:30:52;;;;;;;3.72;0.88;;;21.70;60.00;;;;;;4972554;28;20031;-69
2022/05/19 02:33:18;;;;;;;3.78;0.90;;;21.70;60.00;;;;;;4956257;28;20106;-70
2022/05/19 02:35:44;;;;;;;2.80;0.80;;;21.70;60.00;;;;;;4956190;28;20038;-70
2022/05/19 02:38:10;;;;;;;2.38;1.02;;;21.70;60.00;;;;;;4972171;28;20557;-70
2022/05/19 02:40:36;;;;;;;5.15;1.08;;;21.70;60.00;;;;;;4972277;28;20113;-70
2022/05/19 02:43:02;;;;;;;3.25;0.82;;;21.70;60.10;;;;;;4956031;28;20117;-70
2022/05/19 02:45:28;;;;;;;3.88;0.90;;;21.70;60.10;;;;;;4971926;28;20109;-70
2022/05/19 02:47:54;;;;;;;3.45;1.05;;;21.70;60.10;;;;;;4956483;28;20031;-70
2022/05/19 02:50:20;;;;;;;2.55;1.10;;;21.70;60.10;;;;;;4955831;28;20027;-69
2022/05/19 02:52:46;;;;;;;3.05;0.90;;;21.70;60.10;;;;;;4972166;28;20117;-70
2022/05/19 02:55:12;;;;;;;1.52;0.70;;;21.70;60.20;;;;;;4972250;28;20106;-70
2022/05/19 02:57:37;;;;;;;4.05;0.85;;;21.70;60.20;;;;;;4972508;28;20034;-70
2022/05/19 03:00:05;;;;;;;2.10;0.73;;;21.70;60.20;;;;;;4976018;28;20031;-70
2022/05/19 03:02:31;;;;;;;3.33;1.20;;;21.70;60.20;;;;;;4975829;28;20030;-70
2022/05/19 03:04:57;;;;;;;2.58;0.90;;;21.70;60.20;;;;;;4976987;28;20059;-70
2022/05/19 03:07:24;;;;;;;3.97;0.90;;;21.70;60.30;;;;;;4975863;28;20023;-70
2022/05/19 03:09:50;;;;;;;4.97;1.00;;;21.70;60.30;;;;;;4977116;28;20023;-70
2022/05/19 03:12:16;;;;;;;1.20;0.70;;;21.70;60.30;;;;;;4975501;28;20117;-70
2022/05/19 03:14:41;;;;;;;5.90;1.38;;;21.70;60.30;;;;;;4975835;28;20030;-70
2022/05/19 03:17:08;;;;;;;3.75;1.08;;;21.70;60.30;;;;;;4977273;28;20031;-70
2022/05/19 03:19:34;;;;;;;7.75;1.00;;;21.70;60.30;;;;;;4990270;28;20030;-70
2022/05/19 03:21:59;;;;;;;2.28;0.80;;;21.70;60.40;;;;;;4968522;28;20436;-70
2022/05/19 03:24:25;;;;;;;2.05;0.90;;;21.60;60.40;;;;;;4975420;28;20022;-70
2022/05/19 03:26:51;;;;;;;1.80;1.00;;;21.70;60.40;;;;;;4959404;28;20038;-70
2022/05/19 03:29:16;;;;;;;2.88;1.23;;;21.70;60.50;;;;;;4975414;28;20074;-70
2022/05/19 03:31:43;;;;;;;2.65;0.77;;;21.70;60.50;;;;;;4976617;28;20031;-70
2022/05/19 03:34:08;;;;;;;3.20;1.15;;;21.60;60.40;;;;;;4975492;28;20022;-70
2022/05/19 03:36:35;;;;;;;4.05;1.00;;;21.70;60.50;;;;;;4975360;28;20031;-76
2022/05/19 03:39:01;;;;;;;3.25;1.00;;;21.70;60.60;;;;;;4975456;28;20436;-76
2022/05/19 03:41:26;;;;;;;1.33;0.57;;;21.60;60.50;;;;;;4975117;28;20118;-76
2022/05/19 03:43:52;;;;;;;2.42;0.80;;;21.60;60.50;;;;;;4976300;28;20521;-76
2022/05/19 03:46:17;;;;;;;3.22;0.77;;;21.70;60.60;;;;;;4976324;28;20041;-76
2022/05/19 03:48:43;;;;;;;2.78;0.90;;;21.70;60.60;;;;;;4975182;28;20034;-77
2022/05/19 03:51:12;;;;;;;2.17;0.75;;;21.70;60.70;;;;;;4976462;28;20027;-76
2022/05/19 03:53:38;;;;;;;2.20;0.70;;;21.60;60.60;;;;;;4975157;28;20027;-76
2022/05/19 03:56:05;;;;;;;2.08;0.52;;;21.60;60.70;;;;;;4974952;28;20035;-76
2022/05/19 03:58:30;;;;;;;2.35;0.70;;;21.60;60.60;;;;;;4976149;28;20026;-76
2022/05/19 04:00:56;;;;;;;4.35;0.90;;;21.60;60.70;;;;;;4974945;28;20039;-75
2022/05/19 04:03:21;;;;;;;3.10;0.80;;;21.60;60.70;;;;;;4975033;28;20026;-75
2022/05/19 04:05:47;;;;;;;1.55;0.80;;;21.60;60.70;;;;;;4976002;28;20035;-76
2022/05/19 04:08:13;;;;;;;5.53;1.60;;;21.60;60.80;;;;;;4975755;28;20023;-76
2022/05/19 04:10:42;;;;;;;2.30;0.93;;;21.60;60.80;;;;;;4975898;28;20409;-76
2022/05/19 04:13:08;;;;;;;2.10;0.80;;;21.60;60.80;;;;;;4974766;28;20547;-75
2022/05/19 04:15:34;;;;;;;3.58;0.80;;;21.60;60.80;;;;;;4974599;28;20479;-76
2022/05/19 04:18:00;;;;;;;2.78;1.15;;;21.60;60.80;;;;;;4974727;28;20029;-75
2022/05/19 04:20:30;;;;;;;2.95;0.80;;;21.60;60.80;;;;;;4975584;28;20111;-75
2022/05/19 04:22:56;;;;;;;3.50;0.82;;;21.60;60.80;;;;;;4975947;28;20540;-76
2022/05/19 04:25:22;;;;;;;4.82;1.17;;;21.60;60.80;;;;;;4958296;28;20046;-76
2022/05/19 04:27:48;;;;;;;4.85;0.90;;;21.60;60.90;;;;;;4958414;28;20053;-76
2022/05/19 04:30:13;;;;;;;1.95;0.75;;;21.60;60.90;;;;;;4974543;28;20051;-76
2022/05/19 04:32:39;;;;;;;2.28;0.80;;;21.60;61.00;;;;;;4958384;28;20019;-76
2022/05/19 04:35:05;;;;;;;1.77;0.80;;;21.60;60.90;;;;;;4975592;28;20023;-76
2022/05/19 04:37:30;;;;;;;1.33;0.60;;;21.60;61.00;;;;;;4975497;28;20089;-76
2022/05/19 04:39:58;;;;;;;3.15;0.90;;;21.60;62.00;;;;;;4975457;28;20105;-76
2022/05/19 04:42:24;;;;;;;2.55;0.90;;;21.60;61.00;;;;;;4974068;28;20023;-76
2022/05/19 04:44:52;;;;;;;5.78;0.88;;;21.60;61.00;;;;;;4958080;28;20105;-76
2022/05/19 04:47:18;;;;;;;4.55;1.10;;;21.60;61.00;;;;;;4958377;28;20023;-76
2022/05/19 04:49:43;;;;;;;4.25;0.70;;;21.60;61.00;;;;;;4975137;28;20034;-75
2022/05/19 04:52:09;;;;;;;2.40;0.90;;;21.60;61.10;;;;;;4974136;28;20023;-76
2022/05/19 04:54:35;;;;;;;3.97;1.55;;;21.60;61.10;;;;;;4974870;28;20023;-76
2022/05/19 04:57:00;;;;;;;1.83;0.70;;;21.60;61.10;;;;;;4975077;28;20042;-76
2022/05/19 04:59:26;;;;;;;1.73;0.70;;;21.60;61.10;;;;;;4973889;28;20042;-76
2022/05/19 05:01:52;;;;;;;3.05;1.00;;;21.60;61.10;;;;;;4975025;28;20023;-76
2022/05/19 05:04:19;;;;;;;3.65;0.85;;;21.60;61.20;;;;;;4973890;28;20027;-76
2022/05/19 05:06:44;;;;;;;3.97;0.70;;;21.50;61.20;;;;;;4973622;28;20030;-76
2022/05/19 05:09:10;;;;;;;1.10;0.70;;;21.60;61.20;;;;;;4973643;28;20027;-76
2022/05/19 05:11:37;;;;;;;2.85;0.80;;;21.50;61.20;;;;;;4973557;28;20018;-76
2022/05/19 05:14:03;;;;;;;2.03;0.90;;;21.50;61.20;;;;;;4974848;28;20094;-76
2022/05/19 05:16:29;;;;;;;5.00;1.13;;;21.50;61.20;;;;;;4973417;28;20457;-76
2022/05/19 05:18:54;;;;;;;1.63;0.90;;;21.50;61.20;;;;;;4974711;28;20026;-77
2022/05/19 05:21:20;;;;;;;3.13;0.80;;;21.50;61.30;;;;;;4986163;28;20396;-76
2022/05/19 05:23:46;;;;;;;3.42;0.90;;;21.50;61.30;;;;;;4970616;28;20394;-76
2022/05/19 05:26:11;;;;;;;1.90;0.80;;;21.50;61.30;;;;;;4971771;28;20517;-77
2022/05/19 05:28:38;;;;;;;0.85;0.65;;;21.60;61.40;;;;;;4970445;28;20560;-77
2022/05/19 05:31:04;;;;;;;1.92;0.80;;;21.50;61.20;;;;;;4970685;28;20038;-77
2022/05/19 05:33:29;;;;;;;2.13;0.60;;;21.50;61.10;;;;;;4971894;28;20027;-77
2022/05/19 05:35:55;;;;;;;2.38;0.70;;;21.50;61.00;;;;;;4970738;28;20556;-75
2022/05/19 05:38:21;;;;;;;9.75;1.70;;;21.50;61.00;;;;;;4968934;28;20511;-77
2022/05/19 05:40:49;;;;;;;8.57;1.95;;;21.40;60.50;;;;;;4971356;28;20054;-77
2022/05/19 05:43:18;;;;;;;8.68;2.22;;;21.30;60.00;;;;;;4968862;28;20027;-77
2022/05/19 05:45:45;;;;;;;9.80;2.28;;;21.10;60.00;;;;;;4969422;28;20046;-78
2022/05/19 05:48:11;;;;;;;9.90;1.98;;;21.00;60.00;;;;;;4969949;28;20030;-77
2022/05/19 05:50:37;;;;;;;10.85;2.03;;;21.00;59.90;;;;;;4971156;28;20031;-77
2022/05/19 05:53:03;;;;;;;12.05;2.10;;;20.90;59.90;;;;;;4969896;28;20085;-77
2022/05/19 05:55:29;;;;;;;9.05;2.30;;;20.80;59.80;;;;;;4969909;28;20086;-77
2022/05/19 05:57:55;;;;;;;9.65;2.08;;;20.80;59.80;;;;;;4969095;28;20015;-77
2022/05/19 06:00:21;;;;;;;10.80;2.38;;;20.80;59.80;;;;;;4969653;28;20051;-76
2022/05/19 06:02:48;;;;;;;10.95;2.17;;;20.70;59.70;;;;;;4968201;28;20106;-77
2022/05/19 06:05:14;;;;;;;14.30;2.85;;;20.70;59.70;;;;;;4970184;28;20062;-77
2022/05/19 06:07:40;;;;;;;6.70;2.15;;;20.60;59.60;;;;;;4969564;28;20413;-77
2022/05/19 06:10:06;;;;;;;7.82;1.95;;;20.60;59.50;;;;;;4969800;28;20430;-78
2022/05/19 06:12:32;;;;;;;17.30;2.85;;;20.50;59.60;;;;;;4971376;28;20114;-77
2022/05/19 06:14:57;;;;;;;14.20;2.45;;;20.50;59.50;;;;;;4971270;28;20093;-77
2022/05/19 06:17:24;;;;;;;12.32;2.42;;;20.50;59.40;;;;;;4972263;28;20114;-77
2022/05/19 06:19:50;;;;;;;8.75;1.80;;;20.50;59.30;;;;;;4970892;28;20015;-77
2022/05/19 06:22:16;;;;;;;9.48;2.47;;;20.40;59.40;;;;;;4970939;28;20027;-77
2022/05/19 06:24:41;;;;;;;11.32;2.38;;;20.40;59.40;;;;;;4970915;28;20019;-77
2022/05/19 06:27:07;;;;;;;11.70;2.40;;;20.30;59.30;;;;;;4971050;28;20429;-76
2022/05/19 06:29:33;;;;;;;15.52;2.80;;;20.30;59.40;;;;;;4972368;28;20027;-77
2022/05/19 06:31:58;;;;;;;15.77;3.22;;;20.30;59.50;;;;;;4971002;28;20408;-77
2022/05/19 06:34:24;;;;;;;7.68;2.22;;;20.30;59.40;;;;;;4970466;28;20029;-78
2022/05/19 06:36:50;;;;;;;10.90;2.50;;;20.30;59.40;;;;;;4971927;28;20390;-77
2022/05/19 06:39:16;;;;;;;11.38;2.50;;;20.30;59.30;;;;;;4970803;28;20023;-77
2022/05/19 06:42:00;;;;;;;11.18;2.55;;;20.30;60.30;;;;;;4970662;28;20106;-77
2022/05/19 06:44:32;;;;;;;11.68;2.42;;;20.20;59.30;;;;;;4971748;28;20437;-78
2022/05/19 06:46:58;;;;;;;17.83;3.20;;;20.20;59.30;;;;;;4971934;28;20034;-77
2022/05/19 06:49:24;;;;;;;11.05;2.35;;;20.20;59.30;;;;;;4972108;28;20106;-77
2022/05/19 06:51:50;;;;;;;10.32;2.35;;;20.20;59.40;;;;;;4971983;28;20429;-77
2022/05/19 06:54:15;;;;;;;14.50;2.88;;;20.20;59.40;;;;;;4972187;28;20496;-77
2022/05/19 06:56:41;;;;;;;11.65;2.65;;;20.10;59.30;;;;;;4972162;28;20509;-77
2022/05/19 06:59:07;;;;;;;9.18;2.63;;;20.10;59.30;;;;;;4973469;28;20493;-78
2022/05/19 07:01:33;;;;;;;15.35;2.85;;;20.10;59.30;;;;;;4972102;28;20046;-78
2022/05/19 07:03:59;;;;;;;13.23;3.00;;;20.10;59.30;;;;;;4972053;28;20478;-78
2022/05/19 07:06:25;;;;;;;13.25;3.08;;;20.10;59.30;;;;;;4972144;28;20440;-77
2022/05/19 07:08:51;;;;;;;11.80;2.88;;;20.00;59.30;;;;;;4972033;28;20027;-77
2022/05/19 07:11:26;;;;;;;9.38;2.22;;;20.10;59.40;;;;;;4972207;28;20073;-77
2022/05/19 07:13:57;;;;;;;11.93;2.65;;;20.00;59.40;;;;;;4973250;28;20031;-77
2022/05/19 07:16:23;;;;;;;9.40;2.40;;;20.00;59.40;;;;;;4972097;28;20026;-77
2022/05/19 07:18:49;;;;;;;14.93;2.42;;;20.00;59.40;;;;;;4971866;28;20271;-77
2022/05/19 07:21:17;;;;;;;9.95;2.20;;;20.00;59.30;;;;;;4973256;28;20102;-77
2022/05/19 07:23:43;;;;;;;12.25;2.80;;;20.00;59.30;;;;;;4975250;28;20552;-77
2022/05/19 07:26:08;;;;;;;11.77;2.50;;;19.90;59.20;;;;;;4992527;28;20109;-77
2022/05/19 07:28:35;;;;;;;10.23;2.67;;;19.90;59.20;;;;;;4992302;28;20031;-77
2022/05/19 07:31:00;;;;;;;15.27;3.25;;;19.90;59.20;;;;;;4991302;28;20108;-77
2022/05/19 07:33:28;;;;;;;11.32;2.50;;;19.90;59.20;;;;;;4974905;28;20046;-77
2022/05/19 07:35:54;;;;;;;12.30;2.38;;;19.80;59.00;;;;;;4992484;28;20031;-78
2022/05/19 07:38:20;;;;;;;9.93;2.17;;;19.80;59.00;;;;;;4975190;28;20538;-77
2022/05/19 07:40:45;;;;;;;10.00;2.13;;;19.80;59.10;;;;;;4990893;28;20452;-77
2022/05/19 07:45:55;;;;;;;9.13;2.20;;;19.80;59.00;;;;;;4994740;28;20049;-77
2022/05/19 07:48:20;;;;;;;8.25;2.38;;;19.80;60.00;;;;;;4995587;28;20030;-77
2022/05/19 07:50:46;;;;;;;8.88;1.88;;;19.70;58.90;;;;;;4990601;28;20031;-77
2022/05/19 07:53:12;;;;;;;11.30;2.00;;;19.70;58.90;;;;;;4976483;28;20057;-77
2022/05/19 07:55:37;;;;;;;11.77;2.80;;;19.80;58.90;;;;;;4976284;28;20102;-77
2022/05/19 07:58:03;;;;;;;10.15;2.47;;;19.70;58.80;;;;;;4976238;28;20027;-77
2022/05/19 08:00:29;;;;;;;11.23;2.10;;;19.70;58.90;;;;;;4974999;28;20110;-77
2022/05/19 08:02:55;;;;;;;7.85;2.33;;;19.70;58.80;;;;;;4974501;28;20058;-77
2022/05/19 08:05:20;;;;;;;9.82;2.05;;;19.70;58.90;;;;;;4975147;28;20019;-77
2022/05/19 08:07:46;;;;;;;10.38;2.40;;;19.70;58.70;;;;;;4975929;28;20090;-77
2022/05/19 08:10:20;;;;;;;8.05;2.08;;;19.70;58.60;;;;;;4976023;28;20019;-77
2022/05/19 08:15:37;;;;;;;7.45;1.95;;;19.70;58.60;;;;;;4975007;28;20082;-77
2022/05/19 08:18:23;;;;;;;6.63;2.07;;;19.60;58.60;;;;;;4974569;28;20110;-77
2022/05/19 08:20:57;;;;;;;7.82;1.80;;;19.70;58.20;;;;;;4958195;28;20626;-77
2022/05/19 08:23:33;;;;;;;11.30;2.55;;;19.60;58.40;;;;;;4957446;28;20532;-77
2022/05/19 08:26:00;;;;;;;8.35;2.03;;;19.60;58.10;;;;;;4993899;28;20030;-77
2022/05/19 08:28:29;;;;;;;11.43;2.47;;;19.60;58.40;;;;;;4977627;28;20033;-77
2022/05/19 08:31:21;;;;;;;6.38;1.90;;;19.60;58.30;;;;;;4993737;28;20073;-77
2022/05/19 08:33:48;;;;;;;7.82;1.92;;;19.60;58.30;;;;;;4991994;28;20038;-77
2022/05/19 08:36:13;;;;;;;9.32;1.98;;;19.60;58.30;;;;;;4977685;28;20088;-77
2022/05/19 08:38:39;;;;;;;5.68;1.73;;;19.60;58.30;;;;;;4993793;28;20026;-77
2022/05/19 08:41:11;;;;;;;9.68;1.95;;;19.60;58.20;;;;;;4977651;28;20022;-77
2022/05/19 08:43:58;;;;;;;5.50;1.63;;;19.70;58.20;;;;;;4994718;28;20022;-77
2022/05/19 08:46:30;;;;;;;8.90;2.03;;;19.70;57.70;;;;;;4977487;28;20042;-77
2022/05/19 08:48:59;;;;;;;8.52;1.50;;;19.60;57.90;;;;;;4993539;28;20026;-78
2022/05/19 08:51:28;;;;;;;8.30;1.63;;;19.60;57.90;;;;;;4990324;28;20023;-77
2022/05/19 08:53:54;;;;;;;8.48;1.83;;;19.60;57.90;;;;;;4973938;28;20019;-77
2022/05/19 08:56:26;;;;;;;5.97;1.63;;;19.60;57.90;;;;;;4972969;28;20027;-77
2022/05/19 08:59:32;;;;;;;7.93;1.77;;;19.60;57.80;;;;;;4973660;28;20049;-77
2022/05/19 09:02:07;;;;;;;5.60;1.40;;;19.70;57.50;;;;;;4953482;29;20039;-77
2022/05/19 09:04:33;;;;;;;9.18;1.90;;;19.60;57.60;;;;;;4937819;29;20035;-77
2022/05/19 09:10:20;;;;;;;10.02;1.75;;;19.60;57.60;;;;;;4953444;29;20042;-77
2022/05/19 09:12:46;;;;;;;7.18;1.50;;;19.60;57.20;;;;;;4896346;29;20043;-77
2022/05/19 09:15:12;;;;;;;5.75;1.90;;;19.60;58.70;;;;;;4896346;29;20057;-77
2022/05/19 09:17:44;;;;;;;5.13;1.60;;;19.60;57.60;;;;;;4896317;29;20068;-77
2022/05/19 09:20:12;;;;;;;6.57;1.50;;;19.60;57.50;;;;;;4896347;29;20044;-77
2022/05/19 09:22:37;;;;;;;6.32;1.48;;;19.60;57.50;;;;;;4896038;29;20044;-77
2022/05/19 09:25:06;;;;;;;5.90;1.40;;;19.60;57.40;;;;;;4896100;29;20051;-77
2022/05/19 09:27:35;;;;;;;6.47;1.40;;;19.70;57.40;;;;;;4896061;29;20041;-77
2022/05/19 09:30:00;;;;;;;5.32;1.30;;;19.70;57.40;;;;;;4895848;29;20116;-77
2022/05/19 09:32:37;;;;;;;10.15;1.80;;;19.70;57.40;;;;;;4880330;29;20171;-77
2022/05/19 09:35:05;;;;;;;6.07;1.40;;;19.70;57.30;;;;;;4895869;29;20403;-77
2022/05/19 09:37:43;;;;;;;6.13;1.20;;;19.70;57.30;;;;;;4895879;29;20043;-77
2022/05/19 09:40:11;;;;;;;6.80;1.60;;;19.70;57.00;;;;;;4911471;29;20037;-77
2022/05/19 09:42:55;;;;;;;6.72;2.17;;;19.70;57.20;;;;;;4895923;29;20044;-77
2022/05/19 09:45:22;;;;;;;8.98;1.50;;;19.70;57.00;;;;;;4910650;29;20065;-77
2022/05/19 09:47:50;;;;;;;7.00;1.40;;;19.70;57.20;;;;;;4911337;29;20073;-77
2022/05/19 09:50:24;;;;;;;5.68;1.40;;;19.70;57.00;;;;;;4956354;28;20058;-77
2022/05/19 09:52:50;;;;;;;5.65;1.52;;;19.70;56.80;;;;;;4972595;28;20130;-77
2022/05/19 09:55:21;;;;;;;3.30;1.00;;;19.70;57.00;;;;;;4972987;28;20552;-77
2022/05/19 09:57:50;;;;;;;5.72;1.60;;;19.70;56.90;;;;;;4972406;28;20058;-76
2022/05/19 10:00:43;;;;;;;4.78;1.42;;;19.70;56.80;;;;;;4974083;28;20161;-77
2022/05/19 10:03:26;;;;;;;7.63;1.38;;;19.70;56.20;;;;;;4973960;28;20065;-77
2022/05/19 10:05:56;;;;;;;6.68;1.40;;;19.70;56.60;;;;;;4972413;28;20026;-77
2022/05/19 10:08:33;;;;;;;5.13;1.70;;;19.60;56.60;;;;;;4972539;28;20035;-77
2022/05/19 10:11:12;;;;;;;4.65;1.23;;;19.60;57.60;;;;;;4972617;28;20023;-77
2022/05/19 10:13:39;;;;;;;3.55;1.25;;;19.70;56.70;;;;;;4972597;28;20441;-77
2022/05/19 10:16:31;;;;;;;5.30;1.30;;;19.70;56.70;;;;;;4972558;28;20023;-77
2022/05/19 10:19:01;;;;;;;7.60;1.98;;;19.70;56.70;;;;;;4972352;28;20038;-77
2022/05/19 10:22:01;;;;;;;7.43;1.40;;;19.80;56.70;;;;;;4972449;28;20030;-77
2022/05/19 10:24:57;;;;;;;9.48;1.63;;;19.80;56.30;;;;;;4973565;28;20031;-77
2022/05/19 10:33:22;;;;;;;3.63;1.33;;;19.80;56.70;;;;;;4972566;28;20030;-77
2022/05/19 10:36:06;;;;;;;5.18;1.40;;;19.70;56.60;;;;;;4972291;28;20110;-77
2022/05/19 10:38:57;;;;;;;6.38;1.30;;;19.80;56.30;;;;;;4973547;28;20027;-77
2022/05/19 10:41:23;;;;;;;4.90;1.20;;;19.80;56.30;;;;;;4972335;28;20027;-77
2022/05/19 10:43:56;;;;;;;3.60;1.15;;;19.70;56.40;;;;;;4973226;28;20023;-77
2022/05/19 10:46:27;;;;;;;5.05;1.17;;;19.80;56.40;;;;;;4972182;28;20117;-77
2022/05/19 10:49:05;;;;;;;6.05;1.40;;;19.70;56.30;;;;;;4972227;28;20039;-77
2022/05/19 10:51:36;;;;;;;4.90;1.45;;;19.80;56.30;;;;;;4973381;28;20486;-77
2022/05/19 10:54:29;;;;;;;5.47;1.65;;;19.80;56.40;;;;;;4973126;28;20081;-77
2022/05/19 10:57:01;;;;;;;3.43;1.17;;;19.90;56.30;;;;;;4972042;28;20030;-77
2022/05/19 10:59:51;;;;;;;4.93;1.30;;;19.90;56.30;;;;;;4972231;28;20294;-77
2022/05/19 11:02:49;;;;;;;5.35;1.45;;;19.90;56.20;;;;;;4973442;28;20023;-77
2022/05/19 11:05:27;;;;;;;2.38;1.08;;;19.90;56.00;;;;;;4951827;29;20067;-77
2022/05/19 11:07:56;;;;;;;7.00;1.50;;;19.80;56.00;;;;;;4951709;29;20040;-77
2022/05/19 11:10:37;;;;;;;5.22;1.30;;;19.80;56.20;;;;;;4951559;29;20513;-77
2022/05/19 11:13:21;;;;;;;5.80;1.55;;;19.90;56.00;;;;;;4951709;29;20031;-77
2022/05/19 11:16:33;;;;;;;6.50;1.45;;;19.90;55.80;;;;;;4951599;29;20506;-78
2022/05/19 11:19:03;;;;;;;3.67;1.15;;;19.90;55.90;;;;;;4933173;29;20035;-77
2022/05/19 11:22:00;;;;;;;5.00;1.15;;;19.90;56.20;;;;;;4951926;29;20027;-77
2022/05/19 11:24:35;;;;;;;3.88;1.08;;;19.90;56.10;;;;;;4939124;29;20078;-77
2022/05/19 11:27:01;;;;;;;3.42;0.85;;;19.90;56.10;;;;;;4939291;29;20508;-77
2022/05/19 11:29:40;;;;;;;3.55;0.95;;;19.90;56.10;;;;;;4955472;29;20036;-77
2022/05/19 11:32:16;;;;;;;4.28;1.17;;;19.90;55.90;;;;;;4955464;29;20023;-77
2022/05/19 11:35:13;;;;;;;5.07;1.30;;;19.90;56.00;;;;;;4940474;29;20028;-77
2022/05/19 11:38:19;;;;;;;4.50;1.25;;;20.00;55.50;;;;;;4939372;29;20042;-77
2022/05/19 11:40:48;;;;;;;3.88;1.20;;;20.00;55.60;;;;;;4941573;29;20079;-77
2022/05/19 11:43:35;;;;;;;5.18;1.30;;;19.90;55.90;;;;;;4973539;28;20045;-76
2022/05/19 11:46:11;;;;;;;4.53;1.00;;;20.00;55.50;;;;;;4976161;28;20125;-77
2022/05/19 11:55:12;;;;;;;5.15;1.23;;;20.00;55.50;;;;;;4975773;28;20089;-77
2022/05/19 11:58:04;;;;;;;3.88;1.20;;;20.00;55.60;;;;;;4976400;28;20031;-77
2022/05/19 12:00:32;;;;;;;3.97;1.58;;;20.00;55.50;;;;;;4975242;28;20034;-77
2022/05/19 12:03:25;;;;;;;5.65;1.60;;;20.00;55.60;;;;;;4976053;28;20030;-77
2022/05/19 12:06:13;;;;;;;4.65;1.40;;;20.10;55.40;;;;;;4974765;28;20043;-77
2022/05/19 12:08:58;;;;;;;6.05;1.35;;;20.00;55.50;;;;;;4974838;28;20498;-77
2022/05/19 12:11:50;;;;;;;4.03;1.15;;;20.10;55.50;;;;;;4974995;28;20019;-77
2022/05/19 12:14:25;;;;;;;4.10;1.10;;;20.10;55.50;;;;;;4959238;28;20034;-77
2022/05/19 12:16:56;;;;;;;4.78;1.48;;;20.10;55.50;;;;;;4976190;28;20031;-77
2022/05/19 12:19:54;;;;;;;4.22;1.30;;;20.10;55.50;;;;;;4976125;28;20429;-77
2022/05/19 12:22:34;;;;;;;5.18;1.33;;;20.10;55.20;;;;;;4971161;28;20073;-77
2022/05/19 12:25:00;;;;;;;3.88;1.20;;;20.10;55.50;;;;;;4980025;28;20097;-77
2022/05/19 12:27:57;;;;;;;5.22;1.45;;;20.10;55.60;;;;;;4994984;28;20137;-77
2022/05/19 12:33:29;;;;;;;5.47;1.30;;;20.20;55.40;;;;;;4993999;28;20037;-74
2022/05/19 12:36:11;;;;;;;6.78;1.40;;;20.20;55.60;;;;;;4995001;28;20018;-75
2022/05/19 12:38:42;;;;;;;3.75;1.42;;;20.20;55.20;;;;;;4978092;28;20054;-76
2022/05/19 12:41:23;;;;;;;7.70;1.42;;;20.20;55.20;;;;;;4993549;28;20089;-76
2022/05/19 12:43:51;;;;;;;5.18;1.23;;;20.20;55.30;;;;;;4994563;28;20492;-75
2022/05/19 12:46:38;;;;;;;7.43;1.95;;;20.20;55.20;;;;;;4977652;28;20015;-75
2022/05/19 12:49:20;;;;;;;8.50;1.60;;;20.20;54.70;;;;;;5009742;28;20026;-75
2022/05/19 12:51:57;;;;;;;8.27;1.75;;;20.20;55.00;;;;;;4993346;28;20484;-75
2022/05/19 12:54:27;;;;;;;6.60;2.35;;;20.30;55.20;;;;;;4985495;28;20386;-75
2022/05/19 12:56:56;;;;;;;7.05;1.80;;;20.20;55.20;;;;;;4939799;29;20482;-77
2022/05/19 12:59:43;;;;;;;7.82;1.70;;;20.30;55.10;;;;;;4939692;29;20031;-77
2022/05/19 13:02:17;;;;;;;6.25;1.83;;;20.30;55.00;;;;;;4956456;29;20090;-77
2022/05/19 13:04:50;;;;;;;3.97;1.27;;;20.30;55.20;;;;;;4940125;29;20532;-72
2022/05/19 13:07:48;;;;;;;7.95;1.77;;;20.30;55.00;;;;;;4939639;29;20569;-74
2022/05/19 13:10:35;;;;;;;9.35;1.63;;;20.30;55.00;;;;;;4944204;29;20039;-75
2022/05/19 13:13:14;;;;;;;7.88;1.63;;;20.40;55.00;;;;;;4971088;28;20455;-77
2022/05/19 13:15:57;;;;;;;6.50;1.80;;;20.40;55.30;;;;;;4954904;29;20048;-77
2022/05/19 13:18:28;;;;;;;7.90;1.63;;;20.40;55.20;;;;;;4940193;29;20455;-75
2022/05/19 13:21:23;;;;;;;5.55;1.73;;;20.40;55.10;;;;;;4939408;29;20030;-73
2022/05/19 13:23:48;;;;;;;6.97;1.55;;;20.50;55.10;;;;;;4955050;29;20537;-76
2022/05/19 13:26:27;;;;;;;8.32;1.88;;;20.40;55.30;;;;;;4949800;28;20109;-74
2022/05/19 13:32:02;;;;;;;10.73;2.63;;;20.50;55.10;;;;;;4974040;28;20093;-73
2022/05/19 13:34:49;;;;;;;11.43;2.70;;;20.50;55.50;;;;;;4973936;28;20102;-76
2022/05/19 13:37:37;;;;;;;10.88;1.98;;;20.50;55.30;;;;;;4973855;28;20027;-77